Time;durP1;ratioP1;P1;durP2;ratioP2;P2;SDS_P1;SDS_P2;PMS_P1;PMS_P2;Temp;Humidity;BMP_temperature;BMP_pressure;BME280_temperature;BME280_humidity;BME280_pressure;Samples;Min_cycle;Max_cycle;Signal;HPM_P1;HPM_P2
2021/01/02 00:02:22;;;;;;;8.02;6.60;;;5.30;91.60;;;;;;5043792;28;20032;-58
2021/01/02 00:04:51;;;;;;;8.85;6.38;;;5.20;91.60;;;;;;5043223;28;20052;-58
2021/01/02 00:07:44;;;;;;;7.18;6.28;;;5.20;91.60;;;;;;5047127;28;20031;-57
2021/01/02 00:10:09;;;;;;;6.60;5.63;;;5.30;91.60;;;;;;5017332;28;20069;-57
2021/01/02 00:12:54;;;;;;;8.48;7.03;;;5.20;91.60;;;;;;5022321;28;20087;-58
2021/01/02 00:15:27;;;;;;;8.15;6.38;;;5.20;91.60;;;;;;5001832;28;20091;-56
2021/01/02 00:18:04;;;;;;;6.60;5.90;;;5.30;91.70;;;;;;5038370;28;20032;-57
2021/01/02 00:20:41;;;;;;;7.88;5.97;;;5.20;91.60;;;;;;5035276;28;20114;-58
2021/01/02 00:23:21;;;;;;;7.38;6.30;;;5.20;91.60;;;;;;5025965;28;20477;-56
2021/01/02 00:25:57;;;;;;;8.02;6.32;;;5.20;91.70;;;;;;5023706;28;20473;-58
2021/01/02 00:28:23;;;;;;;6.50;5.85;;;5.20;91.60;;;;;;5028855;28;20507;-57
2021/01/02 00:30:58;;;;;;;8.30;5.85;;;5.20;91.70;;;;;;5044576;28;20029;-57
2021/01/02 00:33:45;;;;;;;7.18;5.97;;;5.20;91.60;;;;;;5027343;28;20400;-57
2021/01/02 00:36:19;;;;;;;7.55;6.22;;;5.20;91.60;;;;;;5026704;28;20025;-58
2021/01/02 00:38:45;;;;;;;6.68;5.97;;;5.20;91.60;;;;;;5024648;28;20702;-56
2021/01/02 00:41:10;;;;;;;7.18;6.05;;;5.20;91.60;;;;;;5015650;28;20101;-57
2021/01/02 00:43:36;;;;;;;7.63;6.43;;;5.20;91.60;;;;;;5037660;28;20105;-57
2021/01/02 00:46:01;;;;;;;7.75;6.47;;;5.20;91.60;;;;;;5017569;28;20043;-58
2021/01/02 00:48:27;;;;;;;7.10;6.30;;;5.20;91.60;;;;;;5040468;28;20026;-58
2021/01/02 00:50:53;;;;;;;9.88;7.07;;;5.10;91.60;;;;;;5045434;28;20037;-58
2021/01/02 00:53:32;;;;;;;8.20;6.38;;;5.20;91.70;;;;;;5041348;28;20469;-62
2021/01/02 00:56:23;;;;;;;8.68;6.63;;;5.20;91.70;;;;;;5038753;28;20468;-58
2021/01/02 00:59:07;;;;;;;7.28;6.53;;;5.20;91.70;;;;;;5037963;28;20051;-58
2021/01/02 01:01:53;;;;;;;8.02;6.63;;;5.20;91.70;;;;;;5040165;28;20063;-58
2021/01/02 01:04:32;;;;;;;9.60;7.13;;;5.20;91.70;;;;;;5028440;28;20071;-56
2021/01/02 01:06:57;;;;;;;7.60;6.75;;;5.20;91.70;;;;;;5026841;28;20025;-57
2021/01/02 01:09:24;;;;;;;8.23;6.43;;;5.20;91.60;;;;;;5015511;28;20381;-57
2021/01/02 01:11:50;;;;;;;10.90;6.97;;;5.20;91.60;;;;;;5043854;28;20033;-58
2021/01/02 01:14:15;;;;;;;8.40;6.13;;;5.20;91.60;;;;;;5024687;28;20021;-56
2021/01/02 01:16:43;;;;;;;8.80;6.72;;;5.20;91.70;;;;;;5027297;28;20087;-57
2021/01/02 01:19:10;;;;;;;7.13;6.38;;;5.20;91.70;;;;;;5022783;28;20144;-57
2021/01/02 01:21:36;;;;;;;8.52;6.88;;;5.20;91.70;;;;;;5024035;28;20025;-57
2021/01/02 01:24:35;;;;;;;8.02;6.45;;;5.20;91.70;;;;;;5021581;28;20087;-58
2021/01/02 01:27:19;;;;;;;8.30;7.20;;;5.20;91.70;;;;;;5037815;28;20492;-57
2021/01/02 01:29:57;;;;;;;7.93;6.63;;;5.20;91.70;;;;;;5037185;28;20041;-59
2021/01/02 01:32:24;;;;;;;7.53;6.63;;;5.20;91.60;;;;;;5023715;28;20033;-56
2021/01/02 01:34:59;;;;;;;8.65;6.70;;;5.20;91.60;;;;;;5022882;28;20456;-59
2021/01/02 01:37:26;;;;;;;;;;;5.20;91.60;;;;;;5031029;28;20074;-56
2021/01/02 01:39:52;;;;;;;8.40;6.45;;;5.20;91.60;;;;;;5033901;28;19912;-58
2021/01/02 01:42:41;;;;;;;8.60;6.63;;;5.10;91.60;;;;;;5048927;28;20108;-57
2021/01/02 01:45:21;;;;;;;8.45;7.28;;;5.20;91.60;;;;;;5049207;28;20044;-57
2021/01/02 01:48:05;;;;;;;10.40;6.72;;;5.10;91.60;;;;;;5050393;28;20456;-59
2021/01/02 01:51:09;;;;;;;11.93;6.95;;;5.20;91.60;;;;;;5031655;28;20048;-57
2021/01/02 01:53:55;;;;;;;8.70;6.90;;;5.20;91.60;;;;;;5049495;28;20029;-58
2021/01/02 01:56:31;;;;;;;8.65;7.22;;;5.20;91.60;;;;;;5048937;28;20025;-57
2021/01/02 01:59:23;;;;;;;8.18;6.90;;;5.10;91.60;;;;;;5032837;28;20018;-57
2021/01/02 02:01:53;;;;;;;8.68;6.72;;;5.20;91.70;;;;;;5031955;28;20075;-57
2021/01/02 02:04:56;;;;;;;7.82;6.75;;;5.10;91.60;;;;;;5032145;28;20020;-57
2021/01/02 02:07:21;;;;;;;7.70;6.90;;;5.10;91.70;;;;;;5054714;28;20052;-57
2021/01/02 02:10:00;;;;;;;8.65;6.65;;;5.10;91.70;;;;;;5013767;28;20056;-56
2021/01/02 02:12:33;;;;;;;10.40;7.38;;;5.10;91.70;;;;;;5022779;28;20045;-57
2021/01/02 02:14:58;;;;;;;7.93;7.13;;;5.10;91.70;;;;;;5031582;28;20384;-56
2021/01/02 02:17:25;;;;;;;9.13;7.20;;;5.10;91.70;;;;;;5047722;28;20074;-59
2021/01/02 02:19:57;;;;;;;8.57;6.97;;;5.10;91.70;;;;;;5039031;28;20078;-58
2021/01/02 02:22:24;;;;;;;8.75;7.53;;;5.10;91.70;;;;;;5032837;28;20025;-57
2021/01/02 02:24:54;;;;;;;8.18;7.30;;;5.10;91.70;;;;;;5032794;28;20120;-57
2021/01/02 02:27:27;;;;;;;8.55;7.47;;;5.10;91.70;;;;;;5050213;28;20473;-57
2021/01/02 02:30:05;;;;;;;8.93;7.40;;;5.10;91.70;;;;;;5034153;28;20036;-57
2021/01/02 02:32:34;;;;;;;9.60;7.82;;;5.10;91.70;;;;;;5049425;28;20056;-58
2021/01/02 02:35:03;;;;;;;9.95;7.80;;;5.10;91.70;;;;;;5051197;28;20497;-58
2021/01/02 02:37:29;;;;;;;8.18;7.00;;;5.10;91.70;;;;;;5032147;28;20037;-58
2021/01/02 02:39:55;;;;;;;9.18;7.47;;;5.10;91.70;;;;;;5050737;28;20017;-58
2021/01/02 02:42:20;;;;;;;8.68;6.85;;;5.10;91.70;;;;;;5050868;28;20021;-58
2021/01/02 02:44:46;;;;;;;7.60;6.80;;;5.10;91.70;;;;;;5013788;28;20025;-58
2021/01/02 02:47:13;;;;;;;9.07;7.70;;;5.10;91.70;;;;;;5032730;28;20544;-57
2021/01/02 02:49:39;;;;;;;7.97;7.18;;;5.10;91.70;;;;;;5031738;28;20048;-57
2021/01/02 02:52:33;;;;;;;8.68;7.75;;;5.10;91.70;;;;;;5032169;28;20030;-57
2021/01/02 02:54:59;;;;;;;9.07;7.80;;;5.10;91.70;;;;;;4997525;28;20056;-58
2021/01/02 02:57:24;;;;;;;7.63;6.53;;;5.10;91.70;;;;;;5050815;28;20493;-58
2021/01/02 02:59:50;;;;;;;9.38;8.10;;;5.10;91.70;;;;;;5018590;28;20103;-57
2021/01/02 03:02:15;;;;;;;9.05;8.15;;;5.10;91.70;;;;;;5058941;28;20431;-57
2021/01/02 03:04:41;;;;;;;9.75;8.02;;;5.10;91.70;;;;;;5020236;28;20034;-57
2021/01/02 03:07:06;;;;;;;9.85;8.15;;;5.10;91.70;;;;;;5058976;28;20025;-58
2021/01/02 03:09:32;;;;;;;9.55;8.07;;;5.10;91.70;;;;;;5051238;28;20025;-58
2021/01/02 03:11:58;;;;;;;9.00;7.82;;;5.10;91.70;;;;;;5051400;28;20158;-56
2021/01/02 03:14:24;;;;;;;9.85;8.45;;;5.10;91.70;;;;;;5050003;28;20447;-57
2021/01/02 03:16:55;;;;;;;10.18;8.50;;;5.10;91.70;;;;;;5050156;28;20033;-57
2021/01/02 03:19:20;;;;;;;8.40;7.60;;;5.10;91.90;;;;;;5039209;28;20033;-58
2021/01/02 03:21:46;;;;;;;9.70;8.70;;;5.10;91.70;;;;;;5051337;28;20041;-56
2021/01/02 03:24:11;;;;;;;9.10;8.20;;;5.10;91.70;;;;;;5051119;28;20033;-58
2021/01/02 03:26:37;;;;;;;9.55;8.27;;;5.10;91.70;;;;;;5032204;28;20484;-58
2021/01/02 03:29:03;;;;;;;8.63;7.60;;;5.10;91.70;;;;;;5050475;28;20029;-56
2021/01/02 03:31:28;;;;;;;9.20;8.30;;;5.10;91.60;;;;;;5049375;28;20032;-57
2021/01/02 03:33:54;;;;;;;10.27;8.88;;;5.10;91.60;;;;;;5049559;28;20055;-57
2021/01/02 03:36:19;;;;;;;9.50;8.15;;;5.10;91.60;;;;;;5032987;28;20067;-57
2021/01/02 03:38:55;;;;;;;8.57;7.55;;;5.10;91.90;;;;;;5048882;28;20120;-59
2021/01/02 03:41:21;;;;;;;9.40;8.20;;;5.10;91.60;;;;;;5050180;28;20032;-58
2021/01/02 03:43:47;;;;;;;10.02;8.70;;;5.10;91.60;;;;;;5050071;28;20058;-56
2021/01/02 03:46:12;;;;;;;9.80;7.95;;;5.10;91.60;;;;;;5050219;28;20028;-57
2021/01/02 03:48:38;;;;;;;10.23;8.52;;;5.10;91.70;;;;;;5049650;28;20033;-57
2021/01/02 03:51:04;;;;;;;9.18;8.23;;;5.10;91.70;;;;;;5049398;28;20484;-58
2021/01/02 03:53:30;;;;;;;9.80;8.80;;;5.00;91.60;;;;;;5049004;28;20138;-57
2021/01/02 03:55:55;;;;;;;11.02;8.63;;;5.10;91.70;;;;;;5032249;28;20104;-58
2021/01/02 03:58:21;;;;;;;10.23;9.10;;;5.00;92.00;;;;;;5031721;28;20091;-58
2021/01/02 04:00:46;;;;;;;10.43;9.27;;;5.10;91.70;;;;;;5050522;28;20032;-58
2021/01/02 04:03:12;;;;;;;10.60;7.97;;;5.10;91.70;;;;;;5055517;28;20056;-57
2021/01/02 04:05:37;;;;;;;9.50;8.50;;;5.10;91.70;;;;;;5040760;28;20040;-56
2021/01/02 04:08:03;;;;;;;10.10;8.73;;;5.10;91.70;;;;;;5049583;28;20477;-56
2021/01/02 04:10:29;;;;;;;9.90;8.57;;;5.10;91.70;;;;;;5032385;28;20044;-57
2021/01/02 04:12:54;;;;;;;9.25;8.20;;;5.10;91.70;;;;;;5049681;28;20033;-57
2021/01/02 04:15:20;;;;;;;9.57;8.57;;;5.10;91.70;;;;;;5031302;28;20132;-58
2021/01/02 04:17:45;;;;;;;9.27;8.32;;;5.00;91.70;;;;;;5030706;28;20033;-57
2021/01/02 04:20:11;;;;;;;9.80;8.80;;;5.10;91.70;;;;;;5029198;28;20029;-58
2021/01/02 04:22:37;;;;;;;10.70;9.60;;;5.00;91.70;;;;;;5045666;28;20021;-58
2021/01/02 04:25:04;;;;;;;10.90;9.13;;;5.10;91.70;;;;;;5029866;28;20025;-58
2021/01/02 04:27:29;;;;;;;10.98;9.55;;;5.00;91.70;;;;;;5026264;28;20029;-57
2021/01/02 04:29:55;;;;;;;9.70;8.48;;;5.10;91.70;;;;;;5046503;28;20153;-56
2021/01/02 04:32:20;;;;;;;10.82;9.60;;;5.10;91.70;;;;;;5041394;28;20033;-56
2021/01/02 04:34:46;;;;;;;10.63;9.02;;;5.10;91.70;;;;;;5047471;28;20615;-57
2021/01/02 04:37:12;;;;;;;10.43;9.25;;;5.00;91.70;;;;;;5027146;28;20029;-56
2021/01/02 04:39:37;;;;;;;11.77;9.10;;;5.00;91.70;;;;;;5047328;28;20021;-57
2021/01/02 04:42:03;;;;;;;10.93;9.75;;;5.10;91.70;;;;;;5043665;28;20029;-56
2021/01/02 04:44:28;;;;;;;10.95;9.73;;;5.00;91.70;;;;;;5047652;28;20515;-57
2021/01/02 04:46:54;;;;;;;11.45;9.93;;;5.00;91.70;;;;;;5027367;28;20056;-58
2021/01/02 04:49:20;;;;;;;12.45;9.90;;;5.00;91.70;;;;;;5046893;28;20032;-58
2021/01/02 04:51:45;;;;;;;12.00;9.55;;;5.10;91.70;;;;;;5026832;28;20112;-57
2021/01/02 04:54:11;;;;;;;11.63;10.10;;;5.00;91.70;;;;;;5020484;28;20041;-58
2021/01/02 04:56:40;;;;;;;10.85;9.50;;;5.00;91.70;;;;;;5026072;28;20025;-58
2021/01/02 04:59:09;;;;;;;10.23;9.15;;;5.00;91.60;;;;;;5029729;28;20027;-58
2021/01/02 05:01:38;;;;;;;10.90;9.35;;;5.10;91.70;;;;;;5048211;28;20108;-56
2021/01/02 05:04:05;;;;;;;10.18;9.18;;;5.10;91.70;;;;;;5018324;28;20033;-57
2021/01/02 05:06:30;;;;;;;11.93;10.27;;;5.00;91.60;;;;;;5022753;28;20051;-58
2021/01/02 05:08:56;;;;;;;11.50;10.00;;;5.00;91.70;;;;;;5054991;28;20096;-58
2021/01/02 05:11:21;;;;;;;11.57;10.13;;;5.00;91.60;;;;;;5024230;28;20108;-58
2021/01/02 05:13:47;;;;;;;10.77;9.68;;;5.00;91.70;;;;;;5034683;28;20445;-59
2021/01/02 05:16:27;;;;;;;11.27;9.45;;;5.00;91.60;;;;;;5028004;28;20116;-59
2021/01/02 05:18:55;;;;;;;10.90;9.70;;;5.00;91.70;;;;;;5023347;28;20393;-58
2021/01/02 05:21:20;;;;;;;11.40;10.15;;;5.00;91.60;;;;;;5049333;28;20028;-58
2021/01/02 05:24:19;;;;;;;10.93;9.30;;;5.00;91.60;;;;;;5047245;28;20033;-58
2021/01/02 05:26:57;;;;;;;12.65;10.35;;;5.00;91.60;;;;;;5038822;28;20107;-58
2021/01/02 05:29:23;;;;;;;12.15;10.32;;;5.10;91.70;;;;;;5020893;28;20106;-56
2021/01/02 05:31:54;;;;;;;11.50;9.85;;;5.00;91.60;;;;;;5022071;28;20025;-56
2021/01/02 05:34:20;;;;;;;10.45;9.32;;;5.00;91.60;;;;;;5026296;28;20045;-56
2021/01/02 05:36:46;;;;;;;10.77;9.68;;;5.00;91.60;;;;;;5016346;28;20204;-59
2021/01/02 05:39:16;;;;;;;10.73;9.57;;;5.00;91.60;;;;;;5024185;28;20563;-58
2021/01/02 05:41:51;;;;;;;12.55;9.85;;;5.00;91.70;;;;;;5018764;28;20028;-57
2021/01/02 05:44:17;;;;;;;12.40;10.45;;;5.00;91.60;;;;;;5025638;28;20025;-58
2021/01/02 05:46:44;;;;;;;11.30;10.13;;;5.00;91.60;;;;;;5018412;28;20036;-57
2021/01/02 05:49:33;;;;;;;11.90;10.07;;;5.00;91.60;;;;;;5020015;28;20017;-57
2021/01/02 05:51:59;;;;;;;11.68;10.15;;;5.00;91.70;;;;;;5022493;28;20385;-57
2021/01/02 05:54:29;;;;;;;12.25;10.20;;;5.00;91.70;;;;;;5033038;28;20322;-59
2021/01/02 05:56:59;;;;;;;12.60;10.07;;;5.00;91.70;;;;;;5025649;28;20036;-57
2021/01/02 05:59:32;;;;;;;11.45;9.98;;;5.00;91.70;;;;;;5042053;28;20421;-58
2021/01/02 06:01:58;;;;;;;12.52;10.07;;;5.00;91.70;;;;;;5037532;28;20045;-57
2021/01/02 06:04:24;;;;;;;11.57;10.35;;;5.00;91.70;;;;;;5041202;28;20528;-58
2021/01/02 06:07:06;;;;;;;12.35;10.63;;;5.00;91.60;;;;;;5026142;28;20125;-57
2021/01/02 06:09:33;;;;;;;12.13;10.38;;;5.00;91.70;;;;;;5031037;28;20022;-59
2021/01/02 06:12:03;;;;;;;11.30;10.10;;;5.00;91.70;;;;;;5004013;28;20025;-58
2021/01/02 06:14:31;;;;;;;12.02;10.32;;;5.00;91.60;;;;;;5031297;28;20104;-57
2021/01/02 06:16:57;;;;;;;11.90;10.55;;;5.00;91.60;;;;;;5035469;28;20048;-59
2021/01/02 06:19:22;;;;;;;11.38;10.18;;;5.00;91.70;;;;;;5018684;28;20061;-56
2021/01/02 06:21:48;;;;;;;12.20;10.93;;;5.00;91.70;;;;;;5038436;28;20112;-59
2021/01/02 06:24:14;;;;;;;12.55;10.75;;;5.00;91.60;;;;;;5026766;28;20592;-58
2021/01/02 06:26:39;;;;;;;13.05;10.98;;;5.00;91.70;;;;;;5022096;28;20032;-57
2021/01/02 06:29:05;;;;;;;11.35;10.25;;;5.00;91.60;;;;;;5026932;28;20025;-59
2021/01/02 06:31:32;;;;;;;11.52;9.93;;;5.00;91.60;;;;;;5038679;28;20405;-58
2021/01/02 06:33:57;;;;;;;12.25;10.93;;;5.00;91.60;;;;;;5028286;28;20049;-58
2021/01/02 06:36:36;;;;;;;12.95;11.10;;;5.00;91.70;;;;;;5038988;28;20028;-58
2021/01/02 06:39:18;;;;;;;12.10;10.48;;;5.00;91.60;;;;;;5027646;28;20033;-57
2021/01/02 06:41:44;;;;;;;11.93;10.63;;;5.00;91.60;;;;;;5048800;28;20087;-59
2021/01/02 06:44:09;;;;;;;12.23;11.02;;;5.00;91.60;;;;;;5028191;28;20037;-58
2021/01/02 06:46:35;;;;;;;11.18;9.90;;;5.00;91.60;;;;;;5047576;28;20025;-58
2021/01/02 06:49:00;;;;;;;11.35;10.15;;;5.00;91.60;;;;;;5029109;28;20106;-57
2021/01/02 06:51:27;;;;;;;12.27;10.50;;;5.00;91.60;;;;;;5048258;28;20037;-58
2021/01/02 06:53:53;;;;;;;11.95;10.48;;;5.00;91.60;;;;;;5045658;28;20082;-56
2021/01/02 06:56:21;;;;;;;13.18;11.05;;;5.00;91.60;;;;;;5044317;28;20045;-59
2021/01/02 06:58:48;;;;;;;11.20;10.07;;;5.00;91.60;;;;;;5034912;28;20054;-57
2021/01/02 07:01:16;;;;;;;12.88;10.32;;;5.00;91.60;;;;;;5018574;28;20033;-57
2021/01/02 07:03:46;;;;;;;11.55;10.35;;;5.00;91.60;;;;;;5048517;28;20477;-59
2021/01/02 07:06:21;;;;;;;11.30;10.10;;;5.00;91.60;;;;;;5049460;28;20029;-56
2021/01/02 07:08:52;;;;;;;11.07;9.98;;;5.00;91.60;;;;;;5047512;28;20486;-59
2021/01/02 07:11:27;;;;;;;12.50;11.13;;;5.00;91.60;;;;;;5043675;28;20507;-56
2021/01/02 07:14:08;;;;;;;11.20;10.00;;;5.00;91.60;;;;;;5036946;28;20083;-57
2021/01/02 07:16:37;;;;;;;11.95;10.30;;;5.00;91.60;;;;;;5047534;28;20021;-57
2021/01/02 07:19:06;;;;;;;12.40;10.90;;;5.00;91.60;;;;;;5015324;28;20030;-56
2021/01/02 07:21:38;;;;;;;11.95;10.30;;;5.00;91.50;;;;;;5028793;28;20484;-56
2021/01/02 07:24:45;;;;;;;11.73;10.52;;;5.00;91.60;;;;;;5046064;28;20495;-56
2021/01/02 07:27:17;;;;;;;11.13;10.02;;;5.00;91.60;;;;;;5025399;28;20033;-57
2021/01/02 07:29:44;;;;;;;12.85;10.82;;;5.00;91.60;;;;;;5030580;28;20024;-59
2021/01/02 07:32:11;;;;;;;12.93;10.88;;;5.00;91.60;;;;;;5030019;28;20027;-57
2021/01/02 07:34:37;;;;;;;12.25;10.82;;;5.00;91.60;;;;;;5028663;28;20377;-58
2021/01/02 07:37:07;;;;;;;11.40;10.25;;;5.00;91.60;;;;;;5034432;28;20032;-59
2021/01/02 07:39:33;;;;;;;12.38;11.10;;;5.00;91.60;;;;;;5041992;28;20025;-58
2021/01/02 07:42:10;;;;;;;12.00;10.52;;;5.00;91.60;;;;;;5034290;28;20021;-58
2021/01/02 07:44:38;;;;;;;11.90;10.65;;;5.00;91.60;;;;;;5048450;28;20021;-57
2021/01/02 07:47:04;;;;;;;11.23;10.02;;;5.00;91.60;;;;;;5019816;28;20021;-58
2021/01/02 07:49:30;;;;;;;12.38;10.45;;;5.00;91.60;;;;;;5045809;28;20021;-57
2021/01/02 07:51:56;;;;;;;13.07;11.68;;;4.90;91.60;;;;;;5029447;28;20025;-56
2021/01/02 07:54:35;;;;;;;12.55;10.63;;;5.00;91.60;;;;;;5049144;28;20464;-58
2021/01/02 07:57:01;;;;;;;12.77;10.65;;;4.90;91.50;;;;;;5043919;28;20013;-56
2021/01/02 07:59:31;;;;;;;12.48;11.18;;;4.90;91.50;;;;;;5033403;28;20457;-58
2021/01/02 08:02:07;;;;;;;12.73;10.65;;;4.90;91.50;;;;;;5032158;28;20017;-57
2021/01/02 08:04:33;;;;;;;13.60;10.90;;;5.00;91.50;;;;;;5025619;28;20028;-59
2021/01/02 08:07:05;;;;;;;11.52;10.32;;;5.00;91.50;;;;;;5043484;28;20025;-58
2021/01/02 08:09:32;;;;;;;11.63;10.25;;;4.90;91.50;;;;;;5046322;28;20447;-57
2021/01/02 08:12:01;;;;;;;11.65;10.45;;;5.00;91.50;;;;;;5032973;28;20087;-58
2021/01/02 08:14:30;;;;;;;13.38;11.57;;;5.00;91.40;;;;;;5045087;28;20013;-57
2021/01/02 08:16:56;;;;;;;13.02;11.48;;;5.00;91.40;;;;;;5036044;28;20021;-57
2021/01/02 08:19:21;;;;;;;13.23;11.30;;;5.00;91.40;;;;;;5032629;28;20401;-57
2021/01/02 08:21:47;;;;;;;12.30;11.05;;;5.00;91.30;;;;;;5047557;28;20021;-57
2021/01/02 08:24:13;;;;;;;15.35;11.10;;;5.00;91.30;;;;;;5009748;28;20045;-58
2021/01/02 08:26:39;;;;;;;12.68;11.18;;;5.00;91.30;;;;;;5045310;28;20175;-57
2021/01/02 08:29:04;;;;;;;12.98;11.68;;;5.00;91.30;;;;;;5032919;28;20061;-56
2021/01/02 08:31:30;;;;;;;13.30;11.40;;;5.00;91.30;;;;;;5030072;28;20092;-58
2021/01/02 08:33:55;;;;;;;14.32;12.32;;;4.90;91.30;;;;;;5035547;28;20572;-59
2021/01/02 08:36:21;;;;;;;12.80;11.00;;;5.00;91.30;;;;;;5027317;28;20261;-57
2021/01/02 08:38:59;;;;;;;13.82;11.52;;;4.90;91.20;;;;;;5044328;28;20034;-58
2021/01/02 08:41:27;;;;;;;13.93;11.68;;;4.90;91.20;;;;;;5040854;28;20593;-58
2021/01/02 08:43:54;;;;;;;12.70;11.35;;;4.90;91.20;;;;;;5028169;28;20031;-58
2021/01/02 08:46:23;;;;;;;12.88;11.38;;;4.90;91.20;;;;;;5046148;28;20049;-57
2021/01/02 08:48:49;;;;;;;14.32;12.15;;;4.90;91.20;;;;;;5040867;28;20099;-57
2021/01/02 08:51:24;;;;;;;13.68;11.82;;;4.90;91.20;;;;;;5033767;28;20423;-58
2021/01/02 08:53:50;;;;;;;14.05;12.10;;;5.00;91.30;;;;;;5044481;28;20029;-57
2021/01/02 08:56:26;;;;;;;15.30;11.00;;;4.90;91.30;;;;;;5011109;28;20037;-59
2021/01/02 08:58:52;;;;;;;15.52;12.27;;;4.90;91.30;;;;;;5033834;28;20033;-59
2021/01/02 09:01:18;;;;;;;17.00;12.52;;;5.00;91.30;;;;;;5016147;28;20026;-58
2021/01/02 09:03:43;;;;;;;18.05;12.38;;;4.90;91.30;;;;;;5052174;28;20076;-56
2021/01/02 09:06:27;;;;;;;22.33;12.20;;;4.90;91.30;;;;;;5040427;28;20053;-59
2021/01/02 09:08:59;;;;;;;16.45;13.18;;;4.90;91.30;;;;;;5029513;28;20033;-58
2021/01/02 09:11:25;;;;;;;19.88;12.82;;;4.90;91.30;;;;;;5033267;28;20026;-57
2021/01/02 09:14:04;;;;;;;15.10;12.40;;;4.90;91.20;;;;;;5046543;28;20025;-57
2021/01/02 09:16:30;;;;;;;18.70;12.73;;;4.90;91.20;;;;;;5042666;28;20396;-58
2021/01/02 09:18:55;;;;;;;18.15;12.40;;;4.90;91.20;;;;;;5028482;28;20033;-59
2021/01/02 09:21:21;;;;;;;16.83;12.80;;;4.90;91.20;;;;;;5043839;28;20029;-57
2021/01/02 09:23:47;;;;;;;18.63;12.43;;;4.90;91.20;;;;;;5046649;28;20071;-58
2021/01/02 09:26:18;;;;;;;19.20;12.48;;;4.90;91.20;;;;;;5009450;28;20022;-58
2021/01/02 09:28:44;;;;;;;27.42;14.80;;;4.90;91.20;;;;;;5044367;28;20037;-58
2021/01/02 09:31:10;;;;;;;22.42;13.23;;;4.90;91.20;;;;;;5027489;28;20090;-57
2021/01/02 09:33:35;;;;;;;21.05;12.25;;;4.90;91.20;;;;;;5045660;28;20606;-57
2021/01/02 09:36:01;;;;;;;24.70;13.32;;;4.90;91.30;;;;;;5049636;28;20064;-57
2021/01/02 09:38:26;;;;;;;20.23;13.85;;;4.90;91.20;;;;;;5042486;28;20083;-59
2021/01/02 09:40:52;;;;;;;20.48;13.10;;;4.90;91.30;;;;;;5025302;28;20440;-57
2021/01/02 09:43:17;;;;;;;20.70;14.05;;;4.90;91.30;;;;;;5028486;28;20038;-58
2021/01/02 09:45:43;;;;;;;24.02;12.88;;;4.90;91.20;;;;;;5040415;28;20040;-58
2021/01/02 09:48:09;;;;;;;21.45;13.30;;;4.90;91.20;;;;;;5031236;28;20551;-58
2021/01/02 09:50:35;;;;;;;18.08;13.30;;;4.90;91.20;;;;;;5035600;28;20025;-56
2021/01/02 09:53:02;;;;;;;20.00;13.88;;;4.90;91.20;;;;;;5031510;28;20026;-59
2021/01/02 09:55:27;;;;;;;18.35;13.27;;;4.90;91.10;;;;;;5031780;28;20029;-56
2021/01/02 09:57:53;;;;;;;24.27;13.10;;;4.90;91.20;;;;;;5027692;28;20053;-59
2021/01/02 10:00:19;;;;;;;16.48;13.00;;;4.90;91.10;;;;;;5026551;28;20380;-56
2021/01/02 10:02:44;;;;;;;19.90;12.75;;;4.90;91.10;;;;;;5028724;28;20044;-58
2021/01/02 10:05:13;;;;;;;15.98;12.35;;;4.90;91.20;;;;;;5013681;28;20040;-59
2021/01/02 10:07:38;;;;;;;16.85;12.80;;;4.90;91.10;;;;;;5032738;28;20049;-57
2021/01/02 10:10:04;;;;;;;18.80;13.00;;;4.90;91.10;;;;;;5016419;28;20075;-57
2021/01/02 10:12:30;;;;;;;17.15;12.93;;;4.90;91.10;;;;;;5042295;28;20029;-58
2021/01/02 10:14:55;;;;;;;15.05;12.93;;;4.90;91.10;;;;;;5051705;28;20631;-58
2021/01/02 10:17:21;;;;;;;19.02;13.07;;;4.90;91.10;;;;;;5051091;28;20040;-58
2021/01/02 10:19:47;;;;;;;17.38;13.35;;;4.90;91.10;;;;;;5049882;28;20040;-57
2021/01/02 10:22:13;;;;;;;15.38;12.65;;;4.90;91.10;;;;;;5034896;28;20032;-58
2021/01/02 10:24:38;;;;;;;18.08;13.60;;;4.90;91.10;;;;;;5017252;28;20210;-59
2021/01/02 10:27:05;;;;;;;19.90;12.73;;;4.90;91.10;;;;;;5053885;28;20035;-59
2021/01/02 10:29:31;;;;;;;15.55;12.05;;;4.80;91.00;;;;;;5018675;28;20469;-59
2021/01/02 10:32:01;;;;;;;15.82;13.20;;;4.90;91.10;;;;;;5052372;28;20106;-57
2021/01/02 10:34:26;;;;;;;17.30;12.50;;;4.90;91.10;;;;;;5035355;28;20049;-57
2021/01/02 10:36:52;;;;;;;15.48;13.02;;;4.90;91.10;;;;;;5026251;28;20034;-57
2021/01/02 10:39:17;;;;;;;22.17;13.65;;;4.90;91.00;;;;;;5031657;28;20484;-59
2021/01/02 10:41:45;;;;;;;14.77;12.55;;;4.80;91.00;;;;;;5046930;28;20516;-57
2021/01/02 10:44:11;;;;;;;18.88;13.02;;;4.90;91.00;;;;;;5032516;28;20449;-58
2021/01/02 10:46:36;;;;;;;16.40;12.02;;;4.90;91.00;;;;;;5032924;28;20065;-59
2021/01/02 10:49:02;;;;;;;18.13;12.98;;;4.90;91.00;;;;;;5048500;28;20112;-58
2021/01/02 10:51:27;;;;;;;17.30;12.73;;;4.90;91.00;;;;;;5038660;28;20033;-59
2021/01/02 10:53:53;;;;;;;16.50;12.95;;;4.90;91.00;;;;;;5020096;28;20225;-59
2021/01/02 10:56:19;;;;;;;16.27;13.60;;;4.90;91.00;;;;;;5020650;28;20398;-58
2021/01/02 10:58:44;;;;;;;15.07;12.40;;;4.90;90.90;;;;;;5026014;28;20060;-58
2021/01/02 11:01:10;;;;;;;17.00;11.80;;;4.90;90.90;;;;;;5040140;28;20149;-57
2021/01/02 11:03:36;;;;;;;14.95;12.57;;;4.90;90.90;;;;;;5024187;28;20057;-57
2021/01/02 11:06:06;;;;;;;15.38;12.85;;;4.90;90.90;;;;;;5039618;28;20063;-59
2021/01/02 11:08:33;;;;;;;15.95;12.65;;;4.90;90.90;;;;;;5026659;28;20469;-58
2021/01/02 11:10:58;;;;;;;16.73;13.13;;;4.80;90.90;;;;;;5038885;28;20042;-57
2021/01/02 11:13:24;;;;;;;14.70;13.02;;;4.90;90.90;;;;;;5043871;28;20021;-56
2021/01/02 11:15:49;;;;;;;15.50;12.65;;;4.90;90.90;;;;;;5040412;28;20053;-57
2021/01/02 11:18:15;;;;;;;15.20;11.90;;;4.90;90.90;;;;;;5041003;28;20504;-56
2021/01/02 11:20:40;;;;;;;16.33;13.20;;;4.90;90.80;;;;;;5053805;28;20052;-57
2021/01/02 11:23:06;;;;;;;16.38;12.95;;;4.90;90.80;;;;;;5028869;28;20051;-57
2021/01/02 11:25:31;;;;;;;14.05;12.52;;;4.80;90.80;;;;;;5041564;28;20121;-56
2021/01/02 11:27:57;;;;;;;14.48;11.98;;;4.90;90.70;;;;;;5048369;28;20910;-58
2021/01/02 11:30:23;;;;;;;16.17;12.82;;;4.90;90.70;;;;;;5046495;28;20469;-57
2021/01/02 11:32:48;;;;;;;15.13;12.05;;;4.90;90.70;;;;;;5051817;28;20500;-58
2021/01/02 11:35:14;;;;;;;16.83;13.05;;;4.90;90.70;;;;;;5043792;28;20155;-58
2021/01/02 11:37:39;;;;;;;15.18;12.02;;;4.80;90.70;;;;;;5050365;28;20021;-57
2021/01/02 11:40:05;;;;;;;17.27;12.05;;;4.80;90.70;;;;;;5028530;28;20381;-59
2021/01/02 11:42:31;;;;;;;16.38;12.43;;;4.80;90.70;;;;;;5046325;28;20464;-58
2021/01/02 11:44:56;;;;;;;14.32;11.77;;;4.90;90.70;;;;;;5046399;28;20469;-58
2021/01/02 11:47:22;;;;;;;14.70;12.05;;;4.80;90.70;;;;;;5055392;28;20044;-57
2021/01/02 11:49:48;;;;;;;14.82;12.02;;;4.90;90.60;;;;;;5052555;28;20037;-58
2021/01/02 11:52:13;;;;;;;13.75;11.25;;;4.90;90.70;;;;;;5014419;28;20035;-58
2021/01/02 11:54:40;;;;;;;13.63;11.57;;;4.90;90.60;;;;;;5034670;28;20031;-58
2021/01/02 11:57:06;;;;;;;14.70;12.43;;;4.90;90.60;;;;;;5030210;28;20520;-58
2021/01/02 11:59:31;;;;;;;15.90;12.55;;;4.90;90.60;;;;;;5024290;28;20025;-57
2021/01/02 12:01:59;;;;;;;14.23;12.10;;;4.90;90.60;;;;;;5044830;28;20608;-57
2021/01/02 12:04:26;;;;;;;15.75;12.00;;;4.90;90.60;;;;;;5024440;28;20025;-57
2021/01/02 12:06:51;;;;;;;13.73;11.70;;;4.90;90.60;;;;;;5031299;28;20022;-58
2021/01/02 12:09:18;;;;;;;13.38;11.02;;;4.90;90.60;;;;;;5024945;28;20036;-59
2021/01/02 12:11:44;;;;;;;13.85;11.38;;;4.90;90.50;;;;;;5031336;28;20377;-57
2021/01/02 12:14:11;;;;;;;14.38;11.60;;;4.90;90.60;;;;;;5011916;28;20036;-58
2021/01/02 12:16:41;;;;;;;13.55;11.23;;;4.90;90.50;;;;;;5017160;28;20035;-59
2021/01/02 12:19:09;;;;;;;16.45;12.25;;;4.90;90.50;;;;;;5029784;28;20031;-59
2021/01/02 12:21:35;;;;;;;14.02;11.30;;;4.90;90.50;;;;;;5030658;28;20025;-57
2021/01/02 12:24:01;;;;;;;14.95;11.57;;;4.90;90.40;;;;;;5025318;28;20043;-57
2021/01/02 12:26:26;;;;;;;13.50;11.63;;;4.90;90.50;;;;;;5043294;28;20024;-58
2021/01/02 12:28:52;;;;;;;12.27;10.70;;;4.90;90.40;;;;;;5025221;28;20025;-58
2021/01/02 12:31:18;;;;;;;13.55;11.32;;;4.90;90.40;;;;;;5031114;28;20033;-58
2021/01/02 12:33:44;;;;;;;14.30;11.50;;;4.90;90.40;;;;;;5025803;28;20131;-59
2021/01/02 12:36:10;;;;;;;12.50;10.77;;;4.90;90.30;;;;;;5043545;28;20116;-57
2021/01/02 12:38:40;;;;;;;13.57;10.73;;;4.80;90.30;;;;;;5023948;28;20118;-57
2021/01/02 12:41:11;;;;;;;14.27;12.10;;;4.80;90.30;;;;;;5043759;28;20033;-58
2021/01/02 12:43:38;;;;;;;13.15;11.75;;;4.90;90.30;;;;;;5026114;28;20021;-59
2021/01/02 12:46:04;;;;;;;12.52;10.95;;;4.90;90.40;;;;;;5040174;28;20092;-59
2021/01/02 12:48:29;;;;;;;14.05;11.10;;;4.80;90.40;;;;;;5042363;28;20128;-58
2021/01/02 12:50:55;;;;;;;12.32;10.75;;;4.80;90.40;;;;;;5047004;28;20498;-58
2021/01/02 12:53:20;;;;;;;12.75;11.07;;;4.80;90.40;;;;;;5051931;28;20039;-57